Time;durP1;ratioP1;P1;durP2;ratioP2;P2;SDS_P1;SDS_P2;PMS_P1;PMS_P2;Temp;Humidity;BMP_temperature;BMP_pressure;BME280_temperature;BME280_humidity;BME280_pressure;Samples;Min_cycle;Max_cycle;Signal;HPM_P1;HPM_P2
2021/07/07 00:00:06;;;;;;;18.38;17.33;;;;;;;17.13;65.47;93464.75;5026240;28;20030;-57
2021/07/07 00:02:31;;;;;;;19.95;18.52;;;;;;;17.14;65.48;93460.66;5026358;28;20026;-57
2021/07/07 00:04:57;;;;;;;21.50;19.70;;;;;;;17.04;65.82;93453.63;5026148;28;20055;-57
2021/07/07 00:07:22;;;;;;;18.98;17.77;;;;;;;17.01;65.67;93463.19;5026297;28;20029;-58
2021/07/07 00:09:48;;;;;;;19.70;18.20;;;;;;;17.01;65.94;93452.03;5043942;28;20497;-51
2021/07/07 00:12:13;;;;;;;18.58;17.20;;;;;;;17.01;65.59;93457.59;5046130;28;20059;-49
2021/07/07 00:14:39;;;;;;;18.33;17.10;;;;;;;16.93;65.90;93457.03;5045876;28;20081;-53
2021/07/07 00:17:04;;;;;;;18.40;17.25;;;;;;;16.85;66.07;93454.41;5046058;28;20078;-51
2021/07/07 00:19:30;;;;;;;19.17;17.70;;;;;;;16.83;65.84;93456.34;5047223;28;20060;-51
2021/07/07 00:21:58;;;;;;;17.45;16.35;;;;;;;16.86;65.93;93450.31;5049392;28;20475;-49
2021/07/07 00:24:25;;;;;;;17.90;16.80;;;;;;;16.89;65.97;93451.19;5049571;28;20040;-51
2021/07/07 00:26:50;;;;;;;18.08;16.88;;;;;;;16.90;65.80;93449.84;5049518;28;20130;-51
2021/07/07 00:29:16;;;;;;;18.75;17.55;;;;;;;16.82;66.07;93452.06;5049399;28;20050;-52
2021/07/07 00:31:41;;;;;;;20.50;17.98;;;;;;;16.87;65.67;93456.63;5049289;28;20117;-51
2021/07/07 00:34:07;;;;;;;19.42;18.02;;;;;;;16.90;65.41;93455.41;5049439;28;20017;-52
2021/07/07 00:36:32;;;;;;;20.75;19.25;;;;;;;16.77;65.79;93455.88;5048606;28;20683;-50
2021/07/07 00:38:58;;;;;;;20.10;18.80;;;;;;;16.73;65.89;93461.19;5048959;28;20405;-55
2021/07/07 00:41:23;;;;;;;20.90;19.50;;;;;;;16.68;65.62;93454.56;5048787;28;20021;-57
2021/07/07 00:43:48;;;;;;;20.67;19.38;;;;;;;16.55;66.75;93455.75;5048809;28;20059;-58
2021/07/07 00:46:14;;;;;;;20.13;18.65;;;;;;;16.61;65.70;93466.63;5048881;28;20028;-58
2021/07/07 00:48:39;;;;;;;18.92;17.73;;;;;;;16.70;64.68;93462.38;5048821;28;20022;-58
2021/07/07 00:51:05;;;;;;;19.67;18.38;;;;;;;16.55;65.06;93466.91;5047558;28;20074;-58
2021/07/07 00:53:31;;;;;;;19.75;18.35;;;;;;;16.51;65.42;93468.69;5047602;28;20078;-58
2021/07/07 00:55:59;;;;;;;18.10;17.00;;;;;;;16.48;65.44;93464.25;5048740;28;20028;-58
2021/07/07 00:58:26;;;;;;;18.95;17.45;;;;;;;16.33;66.01;93470.13;5028842;28;20562;-59
2021/07/07 01:00:52;;;;;;;17.77;16.77;;;;;;;16.39;66.07;93473.34;5027765;28;20090;-60
2021/07/07 01:03:17;;;;;;;18.35;17.10;;;;;;;16.36;66.14;93478.03;5029127;28;20025;-59
2021/07/07 01:05:42;;;;;;;18.90;17.70;;;;;;;16.40;66.35;93474.81;5044568;28;20032;-60
2021/07/07 01:08:08;;;;;;;18.95;17.52;;;;;;;16.24;66.92;93474.34;5032272;28;20021;-60
2021/07/07 01:10:33;;;;;;;17.30;16.17;;;;;;;16.26;67.04;93488.44;5043898;28;20024;-60
2021/07/07 01:12:59;;;;;;;17.73;16.52;;;;;;;16.31;66.96;93472.75;5028703;28;20030;-59
2021/07/07 01:15:24;;;;;;;19.63;18.33;;;;;;;16.23;66.60;93481.25;5028847;28;20401;-58
2021/07/07 01:17:50;;;;;;;18.10;16.90;;;;;;;16.24;66.68;93473.63;5030238;28;20063;-58
2021/07/07 01:20:21;;;;;;;18.02;16.40;;;;;;;16.20;67.21;93471.28;5028803;28;20021;-58
2021/07/07 01:22:48;;;;;;;18.17;16.77;;;;;;;16.18;67.41;93470.38;5034211;28;20032;-59
2021/07/07 01:25:14;;;;;;;21.33;18.80;;;;;;;16.22;66.76;93468.63;5048340;28;20025;-59
2021/07/07 01:27:41;;;;;;;19.13;17.77;;;;;;;16.21;66.96;93467.19;5048582;28;20452;-58
2021/07/07 01:30:09;;;;;;;18.98;17.73;;;;;;;16.25;66.88;93472.31;5048580;28;20043;-58
2021/07/07 01:32:34;;;;;;;19.00;17.80;;;;;;;16.13;66.52;93454.72;5048136;28;20033;-59
2021/07/07 01:35:00;;;;;;;19.90;18.42;;;;;;;16.22;66.74;93470.72;5048039;28;20032;-55
2021/07/07 01:37:27;;;;;;;20.88;19.38;;;;;;;16.24;67.13;93477.13;5048295;28;20029;-55
2021/07/07 01:39:52;;;;;;;18.92;17.83;;;;;;;16.10;66.48;93475.38;5048358;28;20394;-55
2021/07/07 01:42:18;;;;;;;18.73;17.55;;;;;;;16.10;66.52;93462.19;5031441;28;20029;-55
2021/07/07 01:44:43;;;;;;;17.48;16.35;;;;;;;16.11;66.98;93472.03;5031694;27;20469;-56
2021/07/07 01:47:09;;;;;;;19.02;17.77;;;;;;;16.06;67.14;93475.06;5037908;28;20055;-58
2021/07/07 01:49:34;;;;;;;19.02;17.52;;;;;;;16.02;66.75;93475.53;5035492;28;20078;-58
2021/07/07 01:52:00;;;;;;;18.23;17.23;;;;;;;16.01;66.88;93479.59;5036424;28;20017;-59
2021/07/07 01:54:25;;;;;;;18.33;16.83;;;;;;;15.83;67.09;93478.97;5037786;28;20021;-59
2021/07/07 01:56:51;;;;;;;16.25;15.15;;;;;;;15.91;67.18;93487.22;5034988;28;20037;-58
2021/07/07 01:59:16;;;;;;;17.13;15.93;;;;;;;15.76;67.31;93468.72;5037749;28;20028;-56
2021/07/07 02:01:42;;;;;;;16.23;15.18;;;;;;;15.87;67.77;93478.56;5036740;28;20032;-58
2021/07/07 02:04:07;;;;;;;19.98;18.63;;;;;;;15.91;66.92;93484.44;5038155;28;20032;-58
2021/07/07 02:06:33;;;;;;;19.77;18.30;;;;;;;15.79;67.16;93477.94;5043653;28;20509;-58
2021/07/07 02:08:59;;;;;;;31.63;28.50;;;;;;;15.68;66.96;93464.59;5039066;28;20051;-58
2021/07/07 02:11:24;;;;;;;26.75;24.25;;;;;;;15.72;67.19;93470.47;5035939;28;20089;-58
2021/07/07 02:13:50;;;;;;;36.33;32.63;;;;;;;15.76;67.00;93479.88;5036836;28;20021;-58
2021/07/07 02:16:16;;;;;;;44.00;33.70;;;;;;;15.68;67.37;93487.59;5039404;28;20103;-59
2021/07/07 02:18:41;;;;;;;33.58;30.08;;;;;;;15.67;67.64;93496.53;5037067;28;20458;-61
2021/07/07 02:21:07;;;;;;;33.53;29.95;;;;;;;15.67;67.57;93485.38;5040782;28;20501;-61
2021/07/07 02:23:33;;;;;;;32.10;28.25;;;;;;;15.69;67.42;93491.84;5047259;28;20481;-57
2021/07/07 02:25:58;;;;;;;31.55;28.30;;;;;;;15.67;67.29;93483.34;5047646;28;20063;-56
2021/07/07 02:28:24;;;;;;;30.63;27.33;;;;;;;15.42;67.95;93470.94;5047644;28;20474;-58
2021/07/07 02:30:51;;;;;;;30.15;26.90;;;;;;;15.59;68.13;93493.13;5047624;28;20060;-58
2021/07/07 02:33:17;;;;;;;28.13;25.33;;;;;;;15.58;67.68;93495.19;5047475;28;20029;-58
2021/07/07 02:35:43;;;;;;;31.25;24.58;;;;;;;15.54;67.74;93494.13;5043465;28;20410;-60
2021/07/07 02:38:11;;;;;;;27.20;24.55;;;;;;;15.55;67.71;93503.97;5027263;28;20029;-60
2021/07/07 02:40:38;;;;;;;24.98;22.58;;;;;;;15.37;67.74;93489.34;5029948;28;20025;-54
2021/07/07 02:43:05;;;;;;;24.75;22.35;;;;;;;15.53;67.44;93501.00;5027527;28;20528;-51
2021/07/07 02:45:31;;;;;;;25.33;23.05;;;;;;;15.54;67.03;93502.47;5027435;28;20467;-56
2021/07/07 02:47:56;;;;;;;23.52;21.33;;;;;;;15.46;67.75;93507.44;5027338;28;20025;-56
2021/07/07 02:50:22;;;;;;;21.90;19.90;;;;;;;15.49;67.93;93506.25;5027000;28;20104;-52
2021/07/07 02:52:49;;;;;;;23.23;21.20;;;;;;;15.48;67.62;93510.38;5027238;28;20034;-59
2021/07/07 02:55:17;;;;;;;22.60;20.38;;;;;;;15.44;67.86;93505.22;5027250;28;20025;-60
2021/07/07 03:00:31;;;;;;;21.60;19.70;;;;;;;15.31;67.93;93515.97;5027048;28;20037;-57
2021/07/07 03:02:58;;;;;;;21.80;18.17;;;;;;;15.36;67.88;93512.19;5026919;28;20029;-56
2021/07/07 03:05:24;;;;;;;20.65;18.92;;;;;;;15.30;68.28;93512.47;5027061;28;20090;-58
2021/07/07 03:07:49;;;;;;;20.65;18.77;;;;;;;15.28;68.11;93517.13;5027199;28;20494;-58
2021/07/07 03:10:15;;;;;;;20.00;17.95;;;;;;;15.33;67.87;93519.66;5027055;28;20496;-54
2021/07/07 03:12:40;;;;;;;18.95;17.25;;;;;;;15.27;68.36;93515.66;5026984;28;20029;-54
2021/07/07 03:15:07;;;;;;;20.20;18.60;;;;;;;15.31;67.38;93527.81;5031071;28;20576;-54
2021/07/07 03:17:32;;;;;;;21.67;19.23;;;;;;;15.29;67.74;93524.16;5046560;28;20036;-55
2021/07/07 03:19:58;;;;;;;19.98;17.85;;;;;;;15.29;67.69;93536.00;5046695;28;20025;-56
2021/07/07 03:22:23;;;;;;;20.42;18.83;;;;;;;15.34;67.58;93540.59;5046498;28;20060;-55
2021/07/07 03:24:49;;;;;;;19.58;17.88;;;;;;;15.30;67.87;93547.88;5046831;28;20108;-56
2021/07/07 03:27:14;;;;;;;18.88;17.02;;;;;;;15.27;68.05;93535.13;5046657;28;20421;-56
2021/07/07 03:29:40;;;;;;;20.77;18.77;;;;;;;15.21;68.57;93529.81;5046760;28;20485;-57
2021/07/07 03:32:05;;;;;;;19.13;17.42;;;;;;;15.10;68.85;93533.88;5046538;28;20413;-56
2021/07/07 03:34:31;;;;;;;20.00;18.10;;;;;;;14.96;69.38;93532.75;5046705;28;20029;-57
2021/07/07 03:36:56;;;;;;;20.15;18.65;;;;;;;14.96;70.08;93540.38;5046729;28;20088;-57
2021/07/07 03:39:22;;;;;;;18.45;16.80;;;;;;;15.11;69.53;93540.91;5046705;28;20112;-58
2021/07/07 03:41:48;;;;;;;21.27;19.33;;;;;;;15.16;68.68;93530.81;5042259;28;20028;-57
2021/07/07 03:44:13;;;;;;;19.73;18.02;;;;;;;15.10;69.17;93531.09;5046192;28;20471;-57
2021/07/07 03:46:39;;;;;;;22.08;19.95;;;;;;;15.16;69.05;93531.56;5046424;28;20040;-57
2021/07/07 03:49:05;;;;;;;20.02;18.17;;;;;;;15.10;69.59;93531.09;5046244;28;20040;-57
2021/07/07 03:51:30;;;;;;;19.58;17.88;;;;;;;15.12;69.90;93538.84;5046470;28;20021;-58
2021/07/07 03:53:56;;;;;;;20.45;18.52;;;;;;;15.10;70.13;93535.91;5045223;28;20474;-58
2021/07/07 03:56:21;;;;;;;19.27;17.52;;;;;;;15.25;69.20;93529.41;5046329;28;20502;-57
2021/07/07 03:58:47;;;;;;;19.83;18.33;;;;;;;15.36;69.07;93535.19;5030086;28;20029;-57
2021/07/07 04:01:13;;;;;;;17.95;16.50;;;;;;;15.31;69.67;93538.22;5030013;28;20025;-57
2021/07/07 04:03:39;;;;;;;19.35;17.65;;;;;;;15.23;69.85;93518.13;5029694;28;20515;-59
2021/07/07 04:06:04;;;;;;;18.63;17.27;;;;;;;15.30;70.64;93540.28;5029701;28;20033;-58
2021/07/07 04:08:30;;;;;;;20.30;17.95;;;;;;;15.39;70.53;93533.28;5029986;28;20030;-55
2021/07/07 04:10:56;;;;;;;19.23;17.77;;;;;;;15.38;70.72;93529.75;5030279;28;20025;-54
2021/07/07 04:13:23;;;;;;;18.42;17.13;;;;;;;15.51;70.88;93537.75;5049398;28;20115;-52
2021/07/07 04:27:43;;;;;;;26.05;24.25;;;;;;;16.48;68.84;93528.38;5106977;27;20616;-57
2021/07/07 04:30:10;;;;;;;21.27;19.67;;;;;;;16.46;68.88;93534.50;5107559;28;20038;-54
2021/07/07 04:32:36;;;;;;;23.17;20.92;;;;;;;16.47;69.65;93538.78;5103427;28;20050;-52
2021/07/07 04:35:02;;;;;;;24.60;20.77;;;;;;;16.43;68.80;93540.53;5086469;28;20486;-59
2021/07/07 04:37:28;;;;;;;26.15;21.38;;;;;;;16.44;68.75;93533.63;5086771;28;20457;-59
2021/07/07 04:39:55;;;;;;;24.70;22.65;;;;;;;16.37;69.19;93540.78;5086601;28;20043;-58
2021/07/07 04:42:21;;;;;;;22.63;20.92;;;;;;;16.41;69.61;93535.53;5086304;28;20029;-59
2021/07/07 04:44:46;;;;;;;22.50;20.58;;;;;;;16.43;69.81;93535.69;5086604;28;20090;-59
2021/07/07 04:47:12;;;;;;;26.08;20.45;;;;;;;16.46;70.35;93542.88;5086715;28;20024;-58
2021/07/07 04:49:37;;;;;;;21.45;19.27;;;;;;;16.52;70.80;93550.97;5092130;28;20404;-58
2021/07/07 04:52:04;;;;;;;22.65;20.45;;;;;;;16.52;71.08;93551.69;5086586;28;20458;-58
2021/07/07 04:54:32;;;;;;;21.75;19.75;;;;;;;16.59;71.76;93544.50;5086584;28;20459;-59
2021/07/07 04:56:58;;;;;;;19.80;18.20;;;;;;;16.60;71.99;93538.38;5086251;28;20531;-59
2021/07/07 04:59:23;;;;;;;21.52;19.92;;;;;;;16.67;72.04;93548.63;5086146;28;20032;-58
2021/07/07 05:01:48;;;;;;;20.55;18.85;;;;;;;16.76;72.68;93549.22;5086509;28;20028;-59
2021/07/07 05:04:14;;;;;;;22.20;20.00;;;;;;;16.85;72.54;93552.00;5085149;28;20500;-59
2021/07/07 05:06:39;;;;;;;19.77;18.17;;;;;;;16.92;72.86;93545.53;5086275;28;20039;-59
2021/07/07 05:09:05;;;;;;;19.98;18.58;;;;;;;16.98;72.67;93545.25;5102554;28;20016;-59
2021/07/07 05:11:30;;;;;;;31.67;23.23;;;;;;;17.07;72.97;93555.66;5106209;28;20031;-58
2021/07/07 05:13:56;;;;;;;24.75;22.50;;;;;;;17.14;74.08;93544.34;5106586;28;20028;-59
2021/07/07 05:16:21;;;;;;;28.48;20.80;;;;;;;17.22;73.54;93552.56;5104891;28;20482;-59
2021/07/07 05:18:47;;;;;;;45.15;23.85;;;;;;;17.25;73.33;93548.59;5104993;28;20071;-51
2021/07/07 05:21:12;;;;;;;27.33;24.73;;;;;;;17.34;73.03;93545.06;5090494;28;20115;-59
2021/07/07 05:23:39;;;;;;;30.05;27.13;;;;;;;17.44;73.67;93551.34;5088636;28;20028;-59
2021/07/07 05:26:04;;;;;;;28.38;25.63;;;;;;;17.51;72.84;93550.47;5105741;28;20062;-58
2021/07/07 05:28:30;;;;;;;28.02;25.23;;;;;;;17.63;72.74;93561.75;5092864;28;20036;-59
2021/07/07 05:30:59;;;;;;;31.67;28.70;;;;;;;17.66;73.43;93555.72;5092660;28;20035;-55
2021/07/07 05:33:29;;;;;;;30.42;27.27;;;;;;;17.75;72.98;93557.75;5092667;28;20104;-55
2021/07/07 05:35:55;;;;;;;33.83;30.83;;;;;;;17.81;74.06;93557.41;5092540;28;20036;-56
2021/07/07 05:38:20;;;;;;;32.75;29.55;;;;;;;17.90;74.29;93556.66;5092167;28;20051;-58
2021/07/07 05:40:46;;;;;;;32.83;30.00;;;;;;;17.97;74.68;93564.13;5092434;28;20103;-59
2021/07/07 05:43:11;;;;;;;35.58;32.30;;;;;;;18.05;74.55;93559.81;5072294;28;20028;-60
2021/07/07 05:45:37;;;;;;;31.73;28.55;;;;;;;17.99;74.50;93542.66;5071904;28;20440;-58
2021/07/07 05:48:04;;;;;;;28.13;25.48;;;;;;;18.21;73.69;93565.78;5071777;28;20169;-59
2021/07/07 05:50:29;;;;;;;26.20;24.02;;;;;;;18.32;73.63;93567.19;5072146;28;20081;-59
2021/07/07 05:52:55;;;;;;;24.52;22.85;;;;;;;18.45;72.62;93566.69;5072059;28;20028;-59
2021/07/07 05:55:21;;;;;;;24.40;22.60;;;;;;;18.60;71.71;93567.03;5071550;28;20047;-59
2021/07/07 05:57:47;;;;;;;23.83;21.95;;;;;;;18.62;70.87;93574.84;5071445;28;20028;-59
2021/07/07 06:00:15;;;;;;;25.63;23.48;;;;;;;18.69;70.35;93579.50;5071870;28;20036;-59
2021/07/07 06:02:42;;;;;;;23.63;22.13;;;;;;;18.79;69.94;93577.38;5071102;28;20513;-61
2021/07/07 06:05:09;;;;;;;25.67;23.98;;;;;;;18.88;70.02;93574.47;5070858;28;20040;-60
2021/07/07 06:07:35;;;;;;;25.58;23.67;;;;;;;19.10;69.78;93580.78;5070793;28;20065;-61
2021/07/07 06:10:02;;;;;;;26.08;24.40;;;;;;;19.16;69.74;93581.19;5071174;28;20031;-58
2021/07/07 06:12:27;;;;;;;26.95;25.15;;;;;;;19.23;69.70;93585.13;5071092;28;20024;-58
2021/07/07 06:14:52;;;;;;;27.25;25.60;;;;;;;19.35;69.93;93585.91;5071289;28;20090;-58
2021/07/07 06:17:18;;;;;;;31.52;29.75;;;;;;;19.45;69.36;93578.88;5071102;28;20024;-58
2021/07/07 06:19:43;;;;;;;37.15;34.65;;;;;;;19.56;68.62;93580.97;5071121;28;20021;-59
2021/07/07 06:22:09;;;;;;;34.25;32.30;;;;;;;19.61;68.94;93581.97;5071532;28;20107;-58
2021/07/07 06:24:34;;;;;;;39.22;37.00;;;;;;;19.78;68.54;93586.50;5081876;28;20034;-57
2021/07/07 06:27:00;;;;;;;37.88;35.92;;;;;;;19.80;68.88;93584.56;5091284;28;20055;-60
2021/07/07 06:29:25;;;;;;;42.00;38.10;;;;;;;19.86;68.04;93582.13;5091369;28;20024;-59
2021/07/07 06:31:51;;;;;;;80.35;72.80;;;;;;;20.01;68.55;93575.34;5091213;28;20028;-58
2021/07/07 06:34:16;;;;;;;60.80;55.60;;;;;;;20.02;67.92;93574.00;5091598;28;20026;-60
2021/07/07 06:36:42;;;;;;;45.30;41.95;;;;;;;20.08;67.16;93565.94;5089041;28;20050;-59
2021/07/07 06:39:07;;;;;;;60.83;56.53;;;;;;;20.18;67.49;93580.59;5087885;28;20020;-57
2021/07/07 06:41:33;;;;;;;56.78;52.72;;;;;;;20.32;69.08;93573.03;5083982;28;20021;-57
2021/07/07 06:43:58;;;;;;;49.30;46.08;;;;;;;20.48;66.43;93579.63;5069574;28;20095;-58
2021/07/07 06:46:24;;;;;;;60.80;55.33;;;;;;;20.65;64.96;93582.03;5084340;28;20035;-55
2021/07/07 06:48:50;;;;;;;34.00;31.98;;;;;;;20.74;64.60;93584.00;5089696;28;20028;-57
2021/07/07 06:51:15;;;;;;;35.25;33.05;;;;;;;20.80;65.99;93578.00;5088960;28;20115;-55
2021/07/07 06:53:40;;;;;;;35.60;33.47;;;;;;;20.86;66.19;93581.13;5088427;28;20023;-58
2021/07/07 06:56:06;;;;;;;25.48;23.83;;;;;;;21.00;64.70;93579.16;5088361;28;20576;-57
2021/07/07 06:58:31;;;;;;;27.88;25.98;;;;;;;21.04;65.14;93580.16;5088060;28;20173;-55
2021/07/07 07:00:57;;;;;;;35.97;33.78;;;;;;;21.08;65.59;93582.47;5088020;28;20055;-55
2021/07/07 07:03:22;;;;;;;31.88;30.00;;;;;;;21.14;66.06;93577.91;5088220;28;20023;-57
2021/07/07 07:05:48;;;;;;;35.35;33.13;;;;;;;21.22;66.26;93576.91;5070063;28;20024;-56
2021/07/07 07:08:16;;;;;;;31.63;29.63;;;;;;;21.42;65.88;93578.06;5069958;28;20115;-57
2021/07/07 07:10:41;;;;;;;30.95;28.98;;;;;;;21.46;66.84;93579.00;5070040;28;20421;-58
2021/07/07 07:13:07;;;;;;;30.85;29.00;;;;;;;21.60;66.57;93574.19;5074684;28;20028;-57
2021/07/07 07:15:33;;;;;;;21.80;19.73;;;;;;;21.69;65.24;93572.53;5089664;28;20032;-53
2021/07/07 07:17:58;;;;;;;17.60;16.50;;;;;;;21.85;63.58;93576.28;5089636;28;20104;-55
2021/07/07 07:20:27;;;;;;;16.25;15.05;;;;;;;22.04;61.71;93573.09;5088695;28;20110;-58
2021/07/07 07:22:53;;;;;;;21.35;19.30;;;;;;;22.10;64.52;93584.66;5089508;28;20585;-57
2021/07/07 07:25:18;;;;;;;22.52;20.73;;;;;;;22.19;64.82;93574.56;5089234;28;20071;-54
2021/07/07 07:27:44;;;;;;;22.20;20.60;;;;;;;22.36;63.70;93585.31;5090053;28;20480;-58
2021/07/07 07:30:10;;;;;;;24.65;22.48;;;;;;;22.60;64.19;93575.34;5088488;28;20119;-56
2021/07/07 07:32:36;;;;;;;12.13;11.20;;;;;;;23.04;59.65;93571.97;5089198;28;20039;-55
2021/07/07 07:35:01;;;;;;;13.25;12.18;;;;;;;23.46;61.87;93578.97;5089133;28;20067;-53
2021/07/07 07:37:37;;;;;;;10.10;9.30;;;;;;;23.75;58.85;93559.25;5084393;28;20071;-52
2021/07/07 07:40:10;;;;;;;11.15;10.05;;;;;;;24.40;58.66;93577.06;5090122;28;20032;-56
2021/07/07 07:42:36;;;;;;;9.75;8.38;;;;;;;24.92;54.77;93583.59;5089624;28;20426;-50
2021/07/07 07:45:01;;;;;;;11.02;8.07;;;;;;;25.41;54.22;93581.44;5089904;28;20027;-50
2021/07/07 07:47:27;;;;;;;8.48;7.68;;;;;;;25.94;50.85;93575.81;5089503;28;20412;-57
2021/07/07 07:49:52;;;;;;;7.90;7.22;;;;;;;26.35;49.57;93584.50;5088402;28;20032;-50
2021/07/07 07:52:18;;;;;;;8.60;7.13;;;;;;;26.59;49.27;93579.75;5087621;28;20035;-49
2021/07/07 07:54:44;;;;;;;7.20;6.60;;;;;;;26.94;47.23;93582.44;5087257;28;20418;-48
2021/07/07 07:57:09;;;;;;;7.32;6.57;;;;;;;27.15;47.76;93580.31;5085392;28;20032;-53
2021/07/07 07:59:35;;;;;;;7.43;6.82;;;;;;;27.38;46.83;93577.63;5087444;28;20028;-52
2021/07/07 08:02:00;;;;;;;7.88;7.07;;;;;;;27.67;47.46;93580.00;5086583;28;20031;-55
2021/07/07 08:04:26;;;;;;;8.20;7.38;;;;;;;27.93;46.16;93580.13;5087130;28;20028;-50
2021/07/07 08:06:51;;;;;;;9.45;6.68;;;;;;;28.01;44.99;93583.22;5087403;28;20482;-53
2021/07/07 08:09:17;;;;;;;6.97;6.28;;;;;;;28.18;44.14;93592.97;5087338;28;20032;-56
2021/07/07 08:11:43;;;;;;;6.53;5.93;;;;;;;28.35;42.90;93592.81;5085687;28;20549;-53
2021/07/07 08:14:09;;;;;;;9.93;6.65;;;;;;;28.51;43.79;93584.78;5086867;28;20036;-49
2021/07/07 08:16:34;;;;;;;9.70;5.90;;;;;;;28.80;45.28;93588.47;5087207;28;20032;-52
2021/07/07 08:19:00;;;;;;;6.13;5.63;;;;;;;28.68;44.43;93586.00;5087095;28;20520;-50
2021/07/07 08:21:25;;;;;;;7.13;5.78;;;;;;;28.78;43.73;93580.63;5087152;28;20092;-49
2021/07/07 08:23:51;;;;;;;8.05;6.18;;;;;;;28.96;44.59;93589.63;5082342;28;20029;-53
2021/07/07 08:26:16;;;;;;;8.82;7.95;;;;;;;29.15;42.81;93588.03;5066522;28;20051;-49
2021/07/07 08:28:43;;;;;;;6.90;6.22;;;;;;;29.32;42.15;93583.50;5066335;28;20735;-50
2021/07/07 08:31:08;;;;;;;7.45;5.25;;;;;;;29.52;41.59;93581.91;5065723;28;20028;-49
2021/07/07 08:33:34;;;;;;;6.75;6.03;;;;;;;29.60;40.70;93590.66;5066932;28;20064;-52
2021/07/07 08:35:59;;;;;;;8.27;5.82;;;;;;;29.67;41.57;93594.38;5066600;28;20037;-49
2021/07/07 08:38:25;;;;;;;6.35;5.38;;;;;;;29.81;41.37;93592.63;5066730;28;20031;-48
2021/07/07 08:40:50;;;;;;;6.25;5.65;;;;;;;29.95;39.87;93607.22;5066433;28;20039;-53
2021/07/07 08:43:16;;;;;;;6.53;5.88;;;;;;;30.31;39.23;93601.69;5065444;28;20529;-51
2021/07/07 08:45:41;;;;;;;6.90;6.28;;;;;;;30.70;38.38;93597.56;5066600;28;20072;-54
2021/07/07 08:48:07;;;;;;;6.00;5.40;;;;;;;31.00;38.12;93600.31;5066401;28;20082;-48
2021/07/07 08:50:34;;;;;;;10.75;6.07;;;;;;;31.36;37.55;93598.19;5066791;28;20032;-48
2021/07/07 08:53:02;;;;;;;6.07;5.50;;;;;;;31.73;37.46;93593.91;5066926;28;20516;-51
2021/07/07 08:55:28;;;;;;;9.48;5.88;;;;;;;32.29;36.51;93594.84;5067261;28;20090;-53
2021/07/07 08:57:55;;;;;;;5.43;4.93;;;;;;;32.28;35.17;93604.81;5066876;28;20115;-50
2021/07/07 09:00:23;;;;;;;6.38;5.70;;;;;;;32.56;35.87;93596.69;5088709;28;20035;-50
2021/07/07 09:02:56;;;;;;;5.88;5.18;;;;;;;32.96;34.30;93604.38;5089165;28;20039;-50
2021/07/07 09:05:22;;;;;;;5.53;5.07;;;;;;;33.17;34.17;93603.94;5090973;28;20114;-52
2021/07/07 09:07:48;;;;;;;5.05;4.63;;;;;;;33.53;31.73;93606.50;5090656;28;20027;-51
2021/07/07 09:10:17;;;;;;;5.05;4.57;;;;;;;33.56;28.80;93610.84;5090670;28;20135;-48
2021/07/07 09:12:42;;;;;;;;;;;;;;;33.66;29.95;93616.66;5089696;28;20058;-49
2021/07/07 09:15:15;;;;;;;4.18;3.88;;;;;;;33.98;29.88;93608.38;5090376;28;20415;-47
2021/07/07 09:17:49;;;;;;;4.13;3.72;;;;;;;34.44;27.36;93610.91;5090540;28;20071;-47
2021/07/07 09:20:16;;;;;;;4.80;4.20;;;;;;;34.56;26.14;93605.31;5090736;28;20056;-47
2021/07/07 09:22:41;;;;;;;5.40;4.90;;;;;;;34.91;27.78;93600.50;5090966;28;20050;-48
2021/07/07 09:25:07;;;;;;;5.70;4.47;;;;;;;34.87;26.80;93606.22;5081771;28;20519;-46
2021/07/07 09:27:35;;;;;;;6.13;4.05;;;;;;;34.98;27.17;93599.06;5089614;28;20560;-47
2021/07/07 09:30:07;;;;;;;4.63;3.88;;;;;;;35.14;27.42;93602.06;5090518;28;20055;-47
2021/07/07 09:32:47;;;;;;;6.80;4.20;;;;;;;35.22;27.98;93613.56;5089965;28;20032;-47
2021/07/07 09:35:16;;;;;;;22.75;5.45;;;;;;;35.16;26.72;93604.94;5090014;28;20032;-47
2021/07/07 09:37:48;;;;;;;13.60;4.80;;;;;;;35.65;26.12;93597.22;5090311;28;20036;-46
2021/07/07 09:40:14;;;;;;;4.03;3.72;;;;;;;35.30;25.51;93576.28;5090132;28;20718;-46
2021/07/07 09:42:42;;;;;;;4.40;4.00;;;;;;;35.13;25.19;93605.66;5078104;28;20032;-47
2021/07/07 09:45:09;;;;;;;4.45;4.05;;;;;;;34.83;26.10;93601.16;5089532;28;20031;-45
2021/07/07 09:47:35;;;;;;;8.15;4.00;;;;;;;34.40;25.24;93601.56;5090351;28;20439;-46
2021/07/07 09:50:01;;;;;;;4.63;4.18;;;;;;;34.57;26.85;93606.75;5089374;28;20028;-46
2021/07/07 09:52:29;;;;;;;5.80;4.25;;;;;;;34.86;27.10;93610.50;5089346;28;20032;-46
2021/07/07 09:54:57;;;;;;;6.80;4.68;;;;;;;35.11;27.75;93609.22;5089556;28;20115;-47
2021/07/07 09:57:22;;;;;;;5.38;4.68;;;;;;;35.14;27.94;93604.22;5076538;28;20045;-48
2021/07/07 09:59:49;;;;;;;4.68;4.00;;;;;;;34.03;26.37;93609.16;5075808;28;20809;-47
2021/07/07 10:02:15;;;;;;;5.00;4.60;;;;;;;33.28;28.30;93604.78;5089513;28;20465;-51
2021/07/07 10:04:43;;;;;;;29.60;6.55;;;;;;;33.43;29.29;93612.84;5087551;28;20055;-48
2021/07/07 10:07:09;;;;;;;6.07;4.28;;;;;;;33.69;27.61;93611.69;5089252;28;20047;-48
2021/07/07 10:09:38;;;;;;;5.65;5.15;;;;;;;33.84;28.53;93616.84;5089329;28;20035;-50
2021/07/07 10:12:04;;;;;;;4.82;4.45;;;;;;;33.95;27.01;93609.06;5079296;28;20063;-50
2021/07/07 10:14:30;;;;;;;4.75;3.97;;;;;;;34.00;26.82;93613.44;5085158;28;20053;-50
2021/07/07 10:16:55;;;;;;;4.53;4.13;;;;;;;34.13;28.40;93601.38;5082587;28;20024;-48
2021/07/07 10:19:21;;;;;;;5.18;4.63;;;;;;;34.53;30.16;93608.84;5075899;28;20090;-49
2021/07/07 10:21:48;;;;;;;3.97;3.67;;;;;;;34.70;27.14;93596.78;5077536;28;20012;-50
2021/07/07 10:24:16;;;;;;;4.40;4.00;;;;;;;34.65;25.02;93598.22;5078758;28;20024;-49
2021/07/07 10:26:42;;;;;;;6.57;4.43;;;;;;;34.27;27.47;93604.34;5098210;28;20510;-52
2021/07/07 10:29:08;;;;;;;4.85;4.47;;;;;;;34.41;28.66;93603.03;5075118;28;20100;-51
2021/07/07 10:31:45;;;;;;;4.70;4.22;;;;;;;34.47;27.50;93605.94;5092377;28;20485;-48
2021/07/07 10:34:11;;;;;;;8.85;7.15;;;;;;;34.17;28.25;93604.28;5078211;28;20035;-48
2021/07/07 10:36:39;;;;;;;4.15;3.85;;;;;;;34.20;26.72;93605.00;5078096;28;20435;-49
2021/07/07 10:39:07;;;;;;;5.78;4.68;;;;;;;34.11;26.81;93603.53;5079725;28;20024;-48
2021/07/07 10:41:41;;;;;;;5.35;4.57;;;;;;;34.11;26.44;93607.09;5076962;28;20599;-48
2021/07/07 10:44:28;;;;;;;4.78;4.38;;;;;;;34.18;27.66;93588.53;5082468;28;20015;-48
2021/07/07 10:47:00;;;;;;;4.55;4.15;;;;;;;34.25;26.91;93606.50;5075152;28;20032;-48
2021/07/07 10:49:28;;;;;;;9.15;4.45;;;;;;;34.45;27.52;93606.66;5077181;28;20028;-51
2021/07/07 10:51:55;;;;;;;5.87;4.23;;;;;;;34.30;25.52;93585.75;5080096;28;20417;-48
2021/07/07 10:54:30;;;;;;;5.85;3.95;;;;;;;34.28;25.73;93597.19;5079698;28;20473;-46
2021/07/07 10:56:57;;;;;;;4.00;3.70;;;;;;;34.75;26.59;93598.25;5077888;28;20056;-51
2021/07/07 10:59:37;;;;;;;4.55;4.15;;;;;;;34.87;25.65;93609.78;5075822;28;20089;-51
2021/07/07 11:02:20;;;;;;;4.57;4.18;;;;;;;34.76;26.13;93605.41;5077505;28;20032;-50
2021/07/07 11:04:49;;;;;;;4.63;4.22;;;;;;;34.59;26.54;93615.34;5078272;28;20032;-48
2021/07/07 11:07:27;;;;;;;4.88;4.13;;;;;;;34.11;26.62;93607.09;5082784;28;20020;-47
2021/07/07 11:09:55;;;;;;;4.72;4.32;;;;;;;33.21;26.56;93614.72;5088385;28;20513;-47
2021/07/07 11:12:41;;;;;;;4.35;3.95;;;;;;;33.07;27.17;93611.69;5088121;28;20038;-48
2021/07/07 11:15:11;;;;;;;4.68;4.28;;;;;;;32.96;28.41;93610.09;5055702;28;20035;-47
2021/07/07 11:17:54;;;;;;;4.53;4.10;;;;;;;32.71;27.46;93600.47;5087953;28;20036;-46
2021/07/07 11:20:31;;;;;;;5.00;4.60;;;;;;;32.59;28.17;93603.88;5070747;28;20040;-45
2021/07/07 11:23:06;;;;;;;5.30;4.80;;;;;;;32.48;29.84;93601.56;5070192;28;20070;-47
2021/07/07 11:25:33;;;;;;;5.93;4.43;;;;;;;32.42;30.24;93578.59;5087847;28;20162;-49
2021/07/07 11:28:00;;;;;;;5.03;4.53;;;;;;;32.73;31.76;93601.22;5090043;28;20024;-48
2021/07/07 11:30:26;;;;;;;5.45;4.85;;;;;;;32.80;31.30;93599.16;5088898;28;20028;-51
2021/07/07 11:33:03;;;;;;;11.38;5.30;;;;;;;32.63;28.50;93601.09;5090143;28;20393;-51